Wampsville, NY (13163)

7:59 PM EST on March 01, 2015 (GMT -0500)
ABC Dairy Farms | Change Station
CLOSE
Current Station
Personal Weather Station
Location: Canastota, NY
Elevation: 469 ft
Nearby Weather Stations

Elev 469 ft 43.08 °N, 75.81 °W | Updated 4 minutes ago

Snow
Snow
25.1 °F
Feels Like 25 °F
N
1.0
Wind Variable Wind from North
Gusts 4.0 mph

Today
High -- | Low -- °F
--% Chance of Precip.
Yesterday
High -- | Low -- °F
Precip. -- in
6:39 AM 5:51 PM
Waxing Gibbous, 88% visible
Pressure 30.22 in
Visibility 1.5 miles
Clouds Overcast 1700 ft
Windchill 25 °F
Dew Point 24 °F
Humidity 94%
Rainfall 0.00 in
Snow Depth Not available.
UV 0 out of 12
Pollen .40 out of 12
Air Quality Not available.
Flu Activity Not available.
METAR KRME 020053Z 12006KT 1 1/2SM -SN BR OVC017 M06/M07 A3019 RMK AO2 SLP231 P0002 T10561067 $

More Conditions Fewer Conditions

Pressure 30.22 in
Visibility 1.5 miles
Clouds Overcast 1700 ft
Windchill 25 °F
Dew Point 24 °F
Humidity 94%
Rainfall 0.00 in
Snow Depth Not available.
UV 0 out of 12
Pollen .40 out of 12
Air Quality Not available.
Flu Activity Not available.
METAR KRME 020053Z 12006KT 1 1/2SM -SN BR OVC017 M06/M07 A3019 RMK AO2 SLP231 P0002 T10561067 $

More Conditions Fewer Conditions

10-Day Weather Forecast

Almanac

Astronomy

Mar. 01, 2015 Rise Set
Actual Time
Civil Twilight
Nautical Twilight
Astronomical Twilight
Moon
Length of Visible Light
Length of Day
Tomorrow will be .
, % of the Moon is Illuminated

Today's Extremes

State Highs State Lows

Community

WunderPhotos

Upload Photos

1,801,659 photos uploaded!

WunderBlogs® & News

Nearby

Air Quality

  Air Quality AQ Index Pollutant
Not available.

Snow Depth

Station Depth Elevation

Earthquake Activity

City Distance Mag. Time & Date
Minimum magnitude displayed is 2.5.

Coastal Water Temperatures

Place Temperature

Nearby Weather Stations

Winter Weather Advisory
Statement as of 3:19 PM EST on March 01, 2015

... Winter Weather Advisory remains in effect until 7 am EST
Monday...

* locations... portions of the western Mohawk Valley and
Susquehanna regions in New York... the northern tier counties
of Pennsylvania... and the Wilkes-Barre Scranton Metro area.

* Accumulations... totals of 3 to 5 inches later tonight.

* Timing... steadier and heavier snowfall will persist until later
this evening... before tapering off between 11 PM and 1 am.

* Temperatures... in the lower 20s.

* Winds... southwest 5 to 10 mph.

* Impacts... snow covered slippery roads and walkways.

Precautionary/preparedness actions...

A Winter Weather Advisory means that periods of snow will cause
travel difficulties. Be prepared for slippery roads and limited
visibilities... and use caution while driving.

Please report snowfall amounts to the National Weather Service by
calling toll free at 1-888-603-1402... or by email at
bgm.Stormreport@noaa.Gov.